createdAt,value
2023-01-22T00:01:23.223Z,11.60
2023-01-22T00:03:53.298Z,12.10
2023-01-22T00:06:22.092Z,12.10
2023-01-22T00:08:50.718Z,13.13
2023-01-22T00:11:20.176Z,12.13
2023-01-22T00:13:48.453Z,12.47
2023-01-22T00:16:18.142Z,14.17
2023-01-22T00:18:47.787Z,12.37
2023-01-22T00:21:16.132Z,12.70
2023-01-22T00:23:44.352Z,12.37
2023-01-22T00:26:15.510Z,12.83
2023-01-22T00:28:45.313Z,11.75
2023-01-22T00:31:14.815Z,16.37
2023-01-22T00:33:43.126Z,10.00
2023-01-22T00:36:15.229Z,12.70
2023-01-22T00:38:43.805Z,13.57
2023-01-22T00:41:13.493Z,12.10
2023-01-22T00:43:42.039Z,10.03
2023-01-22T00:46:12.522Z,10.33
2023-01-22T00:48:41.125Z,13.37
2023-01-22T00:51:10.001Z,14.53
2023-01-22T00:53:41.303Z,13.03
2023-01-22T00:56:10.158Z,10.63
2023-01-22T00:58:38.591Z,13.10
2023-01-22T01:01:07.500Z,8.53
2023-01-22T01:03:37.659Z,10.97
2023-01-22T01:06:07.858Z,7.67
2023-01-22T01:08:39.503Z,14.47
2023-01-22T01:11:12.365Z,10.80
2023-01-22T01:13:43.124Z,10.70
2023-01-22T01:16:14.656Z,11.85
2023-01-22T01:18:43.176Z,10.10
2023-01-22T01:21:12.239Z,9.70
2023-01-22T01:23:41.281Z,10.90
2023-01-22T01:26:12.260Z,11.53
2023-01-22T01:28:41.597Z,12.77
2023-01-22T01:31:11.981Z,10.60
2023-01-22T01:33:40.471Z,11.23
2023-01-22T01:36:11.487Z,13.30
2023-01-22T01:38:40.046Z,10.55
2023-01-22T01:41:12.803Z,10.40
2023-01-22T01:43:41.065Z,15.83
2023-01-22T01:46:18.341Z,14.07
2023-01-22T01:48:49.145Z,13.03
2023-01-22T01:51:21.722Z,10.75
2023-01-22T01:53:51.669Z,13.00
2023-01-22T01:56:24.458Z,13.47
2023-01-22T01:58:56.829Z,13.37
2023-01-22T02:01:25.333Z,12.57
2023-01-22T02:03:54.366Z,13.50
2023-01-22T02:06:22.812Z,13.47
2023-01-22T02:08:53.811Z,10.90
2023-01-22T02:11:24.990Z,12.98
2023-01-22T02:13:58.120Z,11.10
2023-01-22T02:16:26.444Z,12.10
2023-01-22T02:18:54.743Z,12.27
2023-01-22T02:21:32.114Z,13.67
2023-01-22T02:24:00.660Z,12.87
2023-01-22T02:26:29.531Z,13.97
2023-01-22T02:28:57.779Z,13.83
2023-01-22T02:31:26.018Z,15.13
2023-01-22T02:33:54.382Z,13.63
2023-01-22T02:36:22.717Z,14.00
2023-01-22T02:38:52.312Z,13.73
2023-01-22T02:41:20.568Z,13.90
2023-01-22T02:43:48.780Z,14.73
2023-01-22T02:46:17.011Z,14.33
2023-01-22T02:48:45.185Z,12.10
2023-01-22T02:51:13.696Z,12.13
2023-01-22T02:53:41.873Z,12.17
2023-01-22T02:56:12.358Z,13.23
2023-01-22T02:58:40.695Z,12.03
2023-01-22T03:01:18.918Z,12.10
2023-01-22T03:03:48.630Z,13.27
2023-01-22T03:06:21.327Z,12.17
2023-01-22T03:08:49.910Z,11.80
2023-01-22T03:11:19.603Z,12.00
2023-01-22T03:14:05.754Z,12.50
2023-01-22T03:16:52.254Z,12.77
2023-01-22T03:19:38.064Z,12.00
2023-01-22T03:22:06.721Z,10.70
2023-01-22T03:24:34.994Z,13.07
2023-01-22T03:27:05.514Z,12.40
2023-01-22T03:29:33.895Z,12.60
2023-01-22T03:32:02.149Z,11.00
2023-01-22T03:34:30.463Z,9.17
2023-01-22T03:36:58.903Z,10.80
2023-01-22T03:39:27.784Z,12.50
2023-01-22T03:41:56.131Z,14.80
2023-01-22T03:44:25.845Z,12.10
2023-01-22T03:46:54.216Z,11.97
2023-01-22T03:49:25.299Z,14.47
2023-01-22T03:51:53.531Z,13.43
2023-01-22T03:54:21.858Z,12.30
2023-01-22T03:56:50.063Z,12.63
2023-01-22T03:59:18.249Z,13.70
2023-01-22T04:01:47.898Z,15.73
2023-01-22T04:04:16.090Z,13.67
2023-01-22T04:06:44.273Z,10.93
2023-01-22T04:09:12.475Z,16.10
2023-01-22T04:11:40.726Z,15.63
2023-01-22T04:14:08.945Z,13.73
2023-01-22T04:16:37.183Z,12.63
2023-01-22T04:19:06.833Z,20.07
2023-01-22T04:21:35.054Z,15.43
2023-01-22T04:24:03.267Z,15.33
2023-01-22T04:26:31.502Z,12.67
2023-01-22T04:28:59.840Z,16.40
2023-01-22T04:31:28.232Z,16.20
2023-01-22T04:33:56.506Z,15.67
2023-01-22T04:36:28.751Z,14.80
2023-01-22T04:38:57.197Z,15.57
2023-01-22T04:41:25.468Z,16.33
2023-01-22T04:43:53.777Z,14.87
2023-01-22T04:46:22.102Z,16.10
2023-01-22T04:48:50.341Z,17.33
2023-01-22T04:51:18.572Z,14.33
2023-01-22T04:53:48.309Z,13.80
2023-01-22T04:56:18.353Z,15.03
2023-01-22T04:58:46.596Z,16.13
2023-01-22T05:01:14.776Z,14.50
2023-01-22T05:03:42.936Z,18.07
2023-01-22T05:06:11.214Z,17.60
2023-01-22T05:08:39.384Z,15.53
2023-01-22T05:11:09.101Z,17.80
2023-01-22T05:13:37.265Z,13.60
2023-01-22T05:16:05.725Z,15.27
2023-01-22T05:18:34.002Z,13.80
2023-01-22T05:21:02.303Z,16.53
2023-01-22T05:23:30.594Z,14.57
2023-01-22T05:25:58.787Z,14.83
2023-01-22T05:28:28.373Z,15.87
2023-01-22T05:30:56.634Z,14.10
2023-01-22T05:33:24.869Z,17.07
2023-01-22T05:35:57.507Z,17.53
2023-01-22T05:38:25.886Z,14.50
2023-01-22T05:40:54.342Z,12.60
2023-01-22T05:43:22.837Z,15.47
2023-01-22T05:45:52.543Z,17.77
2023-01-22T05:48:20.773Z,18.33
2023-01-22T05:50:49.035Z,14.47
2023-01-22T05:53:17.298Z,17.67
2023-01-22T05:55:45.671Z,16.57
2023-01-22T05:58:13.886Z,17.10
2023-01-22T06:00:42.066Z,15.73
2023-01-22T06:03:11.723Z,14.40
2023-01-22T06:05:39.884Z,17.00
2023-01-22T06:08:08.115Z,16.60
2023-01-22T06:10:36.820Z,16.43
2023-01-22T06:13:05.043Z,14.53
2023-01-22T06:15:33.219Z,15.30
2023-01-22T06:18:02.270Z,18.53
2023-01-22T06:20:31.894Z,14.90
2023-01-22T06:23:00.092Z,15.60
2023-01-22T06:25:28.352Z,15.13
2023-01-22T06:27:56.576Z,16.33
2023-01-22T06:30:24.795Z,15.23
2023-01-22T06:32:54.018Z,16.43
2023-01-22T06:35:22.438Z,17.77
2023-01-22T06:37:53.685Z,21.63
2023-01-22T06:40:21.930Z,16.48
2023-01-22T06:42:50.096Z,16.47
2023-01-22T06:45:18.561Z,19.93
2023-01-22T06:47:47.436Z,20.10
2023-01-22T06:50:16.034Z,16.70
2023-01-22T06:52:44.465Z,16.13
2023-01-22T06:55:14.122Z,18.20
2023-01-22T06:57:42.363Z,18.70
2023-01-22T07:00:11.963Z,17.30
2023-01-22T07:02:41.151Z,16.47
2023-01-22T07:05:09.922Z,14.07
2023-01-22T07:07:38.133Z,15.17
2023-01-22T07:10:06.788Z,18.67
2023-01-22T07:12:36.487Z,18.43
2023-01-22T07:15:06.902Z,17.20
2023-01-22T07:17:37.103Z,15.93
2023-01-22T07:20:05.869Z,18.03
2023-01-22T07:22:34.052Z,18.50
2023-01-22T07:25:02.352Z,16.67
2023-01-22T07:27:32.533Z,16.23
2023-01-22T07:30:02.195Z,18.47
2023-01-22T07:32:30.374Z,18.47
2023-01-22T07:34:58.547Z,19.83
2023-01-22T07:37:26.786Z,19.53
2023-01-22T07:39:55.158Z,16.20
2023-01-22T07:42:23.362Z,13.77
2023-01-22T07:44:51.563Z,11.53
2023-01-22T07:47:21.233Z,19.63
2023-01-22T07:49:49.483Z,17.00
2023-01-22T07:52:17.670Z,17.67
2023-01-22T07:54:45.926Z,19.30
2023-01-22T07:57:15.534Z,14.30
2023-01-22T07:59:43.922Z,18.73
2023-01-22T08:02:14.324Z,18.67
2023-01-22T08:04:44.147Z,22.23
2023-01-22T08:07:17.501Z,21.83
2023-01-22T08:09:45.732Z,18.23
2023-01-22T08:12:13.906Z,21.80
2023-01-22T08:14:42.145Z,17.77
2023-01-22T08:17:10.434Z,18.55
2023-01-22T08:19:38.692Z,24.90
2023-01-22T08:22:08.787Z,17.00
2023-01-22T08:24:36.981Z,16.77
2023-01-22T08:27:05.379Z,17.33
2023-01-22T08:29:33.630Z,17.30
2023-01-22T08:32:01.880Z,14.55
2023-01-22T08:34:30.212Z,18.73
2023-01-22T08:36:58.452Z,18.42
2023-01-22T08:39:28.108Z,12.90
2023-01-22T08:41:57.804Z,12.85
2023-01-22T08:44:26.563Z,11.77
2023-01-22T08:46:54.864Z,15.40
2023-01-22T08:49:23.145Z,16.63
2023-01-22T08:51:51.518Z,15.25
2023-01-22T08:54:20.100Z,12.45
2023-01-22T08:56:49.801Z,15.52
2023-01-22T08:59:18.069Z,15.13
2023-01-22T09:01:46.464Z,14.50
2023-01-22T09:04:14.915Z,22.27
2023-01-22T09:06:43.453Z,19.88
2023-01-22T09:09:11.825Z,14.05
2023-01-22T09:11:40.346Z,14.52
2023-01-22T09:14:10.165Z,18.05
2023-01-22T09:16:38.616Z,18.02
2023-01-22T09:19:07.667Z,14.85
2023-01-22T09:21:37.476Z,16.30
2023-01-22T09:24:06.372Z,15.85
2023-01-22T09:26:34.883Z,18.08
2023-01-22T09:29:05.778Z,15.75
2023-01-22T09:31:36.808Z,16.38
2023-01-22T09:34:05.814Z,15.55
2023-01-22T09:36:34.105Z,16.58
2023-01-22T09:39:02.279Z,15.55
2023-01-22T09:41:34.757Z,16.70
2023-01-22T09:44:06.336Z,16.63
2023-01-22T09:46:40.288Z,14.88
2023-01-22T09:49:15.580Z,16.80
2023-01-22T09:51:46.366Z,18.85
2023-01-22T09:54:16.305Z,15.37
2023-01-22T09:56:46.390Z,15.07
2023-01-22T09:59:18.109Z,13.15
2023-01-22T10:04:33.821Z,13.93
2023-01-22T10:07:04.679Z,15.65
2023-01-22T10:09:34.275Z,14.98
2023-01-22T10:12:11.802Z,18.48
2023-01-22T10:14:40.328Z,16.75
2023-01-22T10:17:19.602Z,16.30
2023-01-22T10:19:51.817Z,15.35
2023-01-22T10:22:23.455Z,15.73
2023-01-22T10:24:52.190Z,15.80
2023-01-22T10:27:24.478Z,13.35
2023-01-22T10:30:02.444Z,14.85
2023-01-22T10:32:33.205Z,15.77
2023-01-22T10:35:03.527Z,15.93
2023-01-22T10:37:31.902Z,15.90
2023-01-22T10:40:01.331Z,16.40
2023-01-22T10:42:30.789Z,15.30
2023-01-22T10:45:12.450Z,14.48
2023-01-22T10:47:42.083Z,16.08
2023-01-22T10:50:15.291Z,19.10
2023-01-22T10:52:46.104Z,16.13
2023-01-22T10:55:23.198Z,14.50
2023-01-22T10:57:56.712Z,16.38
2023-01-22T11:00:43.010Z,16.30
2023-01-22T11:03:23.793Z,17.30
2023-01-22T11:05:58.007Z,16.02
2023-01-22T11:08:30.926Z,16.20
2023-01-22T11:11:03.279Z,14.50
2023-01-22T11:13:39.763Z,15.02
2023-01-22T11:16:16.285Z,14.57
2023-01-22T11:18:52.696Z,16.98
2023-01-22T11:21:25.227Z,17.73
2023-01-22T11:23:58.847Z,16.92
2023-01-22T11:26:45.104Z,16.70
2023-01-22T11:29:27.677Z,18.27
2023-01-22T11:32:03.785Z,17.10
2023-01-22T11:34:47.833Z,18.33
2023-01-22T11:37:18.588Z,16.17
2023-01-22T11:40:25.882Z,15.73
2023-01-22T11:43:10.530Z,14.32
2023-01-22T11:45:55.272Z,17.65
2023-01-22T11:48:40.835Z,14.88
2023-01-22T11:51:20.580Z,13.10
2023-01-22T11:53:58.877Z,14.43
2023-01-22T11:56:48.797Z,14.43
2023-01-22T11:59:27.258Z,17.88
2023-01-22T12:02:35.427Z,15.63
2023-01-22T12:05:14.200Z,12.93
2023-01-22T12:08:04.881Z,14.75
2023-01-22T12:10:45.806Z,16.92
2023-01-22T12:13:27.478Z,15.37
2023-01-22T12:16:05.418Z,12.50
2023-01-22T12:18:59.333Z,15.32
2023-01-22T12:21:38.611Z,14.32
2023-01-22T12:24:16.342Z,12.77
2023-01-22T12:26:49.086Z,14.40
2023-01-22T12:29:22.885Z,14.48
2023-01-22T12:31:55.029Z,15.02
2023-01-22T12:34:28.877Z,12.63
2023-01-22T12:36:57.589Z,13.25
2023-01-22T12:39:31.928Z,12.43
2023-01-22T12:42:14.792Z,14.85
2023-01-22T12:44:56.109Z,14.98
2023-01-22T12:47:30.693Z,13.40
2023-01-22T12:49:58.889Z,12.70
2023-01-22T12:52:38.227Z,14.77
2023-01-22T12:55:29.184Z,13.50
2023-01-22T12:57:57.844Z,14.52
2023-01-22T13:00:34.502Z,12.52
2023-01-22T13:03:04.753Z,11.45
2023-01-22T13:05:44.852Z,12.93
2023-01-22T13:08:38.039Z,11.05
2023-01-22T13:11:10.012Z,11.63
2023-01-22T13:13:48.083Z,11.20
2023-01-22T13:16:22.931Z,11.05
2023-01-22T13:18:53.932Z,15.25
2023-01-22T13:21:26.979Z,11.65
2023-01-22T13:24:00.061Z,12.32
2023-01-22T13:26:31.781Z,14.98
2023-01-22T13:31:29.214Z,12.30
2023-01-22T13:33:59.333Z,12.52
2023-01-22T13:36:28.906Z,12.65
2023-01-22T13:38:58.731Z,12.20
2023-01-22T13:41:35.543Z,11.48
2023-01-22T13:44:05.258Z,13.10
2023-01-22T13:46:37.407Z,13.15
2023-01-22T13:49:08.450Z,11.93
2023-01-22T13:51:37.369Z,10.05
2023-01-22T13:54:08.279Z,11.25
2023-01-22T13:56:37.956Z,9.90
2023-01-22T13:59:08.455Z,10.80
2023-01-22T14:01:38.281Z,9.40
2023-01-22T14:04:08.558Z,11.77
2023-01-22T14:06:46.238Z,10.27
2023-01-22T14:09:14.520Z,9.77
2023-01-22T14:11:44.108Z,11.00
2023-01-22T14:14:19.904Z,10.07
2023-01-22T14:16:48.425Z,10.55
2023-01-22T14:19:16.761Z,11.13
2023-01-22T14:21:45.178Z,10.65
2023-01-22T14:24:13.414Z,10.02
2023-01-22T14:26:43.118Z,10.68
2023-01-22T14:29:11.462Z,11.98
2023-01-22T14:31:39.669Z,10.38
2023-01-22T14:34:08.247Z,10.65
2023-01-22T14:36:36.510Z,11.02
2023-01-22T14:39:06.759Z,11.30
2023-01-22T14:41:35.169Z,10.77
2023-01-22T14:44:05.478Z,10.88
2023-01-22T14:46:33.747Z,12.80
2023-01-22T14:49:02.060Z,14.48
2023-01-22T14:51:30.313Z,12.63
2023-01-22T14:53:59.014Z,12.05
2023-01-22T14:56:27.406Z,12.23
2023-01-22T14:58:55.625Z,13.48
2023-01-22T15:01:25.293Z,12.07
2023-01-22T15:03:54.254Z,12.65
2023-01-22T15:06:22.507Z,12.02
2023-01-22T15:08:50.746Z,13.63
2023-01-22T15:11:19.013Z,13.40
2023-01-22T15:13:47.556Z,13.63
2023-01-22T15:16:15.853Z,13.15
2023-01-22T15:18:45.559Z,13.07
2023-01-22T15:21:13.797Z,12.38
2023-01-22T15:23:42.014Z,8.95
2023-01-22T15:26:23.461Z,9.88
2023-01-22T15:28:51.632Z,10.48
2023-01-22T15:31:19.983Z,37.88
2023-01-22T15:33:49.726Z,10.07
2023-01-22T15:36:17.945Z,11.60
2023-01-22T15:38:46.230Z,11.05
2023-01-22T15:41:21.833Z,12.73
2023-01-22T15:43:51.865Z,8.45
2023-01-22T15:46:21.482Z,8.77
2023-01-22T15:48:51.435Z,9.83
2023-01-22T15:51:20.169Z,10.30
2023-01-22T15:53:50.514Z,7.77
2023-01-22T15:56:19.007Z,9.60
2023-01-22T15:58:47.404Z,11.20
2023-01-22T16:01:16.029Z,8.70
2023-01-22T16:03:44.267Z,11.23
2023-01-22T16:06:16.176Z,9.80
2023-01-22T16:08:46.839Z,8.07
2023-01-22T16:11:15.593Z,8.00
2023-01-22T16:13:44.526Z,9.07
2023-01-22T16:16:17.516Z,7.30
2023-01-22T16:18:46.286Z,7.33
2023-01-22T16:21:17.099Z,8.23
2023-01-22T16:23:47.358Z,11.48
2023-01-22T16:26:17.585Z,10.50
2023-01-22T16:28:46.550Z,9.60
2023-01-22T16:31:17.163Z,10.30
2023-01-22T16:33:47.692Z,9.63
2023-01-22T16:36:19.929Z,12.30
2023-01-22T16:38:48.989Z,11.07
2023-01-22T16:41:27.885Z,16.10
2023-01-22T16:43:58.632Z,13.37
2023-01-22T16:46:28.628Z,10.87
2023-01-22T16:48:59.154Z,13.20
2023-01-22T16:51:33.622Z,13.07
2023-01-22T16:54:08.368Z,15.70
2023-01-22T16:56:36.675Z,17.70
2023-01-22T16:59:04.893Z,16.83
2023-01-22T17:01:33.457Z,14.93
2023-01-22T17:04:01.754Z,20.70
2023-01-22T17:06:35.839Z,12.83
2023-01-22T17:09:04.179Z,13.03
2023-01-22T17:11:32.534Z,13.93
2023-01-22T17:14:01.242Z,12.83
2023-01-22T17:16:29.678Z,13.57
2023-01-22T17:18:59.146Z,16.53
2023-01-22T17:21:28.629Z,16.67
2023-01-22T17:23:58.394Z,15.90
2023-01-22T17:26:26.898Z,15.13
2023-01-22T17:28:55.434Z,16.33
2023-01-22T17:31:24.786Z,16.90
2023-01-22T17:33:55.649Z,15.53
2023-01-22T17:36:25.408Z,15.52
2023-01-22T17:38:53.904Z,14.63
2023-01-22T17:41:25.778Z,15.07
2023-01-22T17:43:56.008Z,14.90
2023-01-22T17:46:26.295Z,15.63
2023-01-22T17:48:54.830Z,13.20
2023-01-22T17:51:25.025Z,12.00
2023-01-22T17:53:54.707Z,11.73
2023-01-22T17:56:26.258Z,11.03
2023-01-22T17:58:57.226Z,12.30
2023-01-22T18:01:30.115Z,13.88
2023-01-22T18:03:59.520Z,12.60
2023-01-22T18:06:27.797Z,12.43
2023-01-22T18:08:56.364Z,14.13
2023-01-22T18:11:28.474Z,14.33
2023-01-22T18:13:57.657Z,11.90
2023-01-22T18:16:28.611Z,14.27
2023-01-22T18:18:59.050Z,13.55
2023-01-22T18:21:27.783Z,12.23
2023-01-22T18:23:56.153Z,14.43
2023-01-22T18:26:26.681Z,13.57
2023-01-22T18:28:56.713Z,15.70
2023-01-22T18:31:26.602Z,15.10
2023-01-22T18:33:56.468Z,13.97
2023-01-22T18:36:26.787Z,13.80
2023-01-22T18:38:55.434Z,12.90
2023-01-22T18:41:26.279Z,14.80
2023-01-22T18:43:57.043Z,15.13
2023-01-22T18:46:28.396Z,15.20
2023-01-22T18:48:58.481Z,16.88
2023-01-22T18:51:28.132Z,18.40
2023-01-22T18:53:56.792Z,19.17
2023-01-22T18:56:26.622Z,15.00
2023-01-22T18:58:55.688Z,14.83
2023-01-22T19:01:25.984Z,16.00
2023-01-22T19:03:56.728Z,18.33
2023-01-22T19:06:26.963Z,17.10
2023-01-22T19:08:58.559Z,12.97
2023-01-22T19:11:28.272Z,14.10
2023-01-22T19:13:58.572Z,12.77
2023-01-22T19:16:27.692Z,17.10
2023-01-22T19:18:56.752Z,17.43
2023-01-22T19:21:26.656Z,17.10
2023-01-22T19:23:56.861Z,16.00
2023-01-22T19:26:28.854Z,17.20
2023-01-22T19:28:58.761Z,16.93
2023-01-22T19:31:28.702Z,15.43
2023-01-22T19:33:58.707Z,17.50
2023-01-22T19:36:29.331Z,17.57
2023-01-22T19:38:58.615Z,16.40
2023-01-22T19:41:28.640Z,13.27
2023-01-22T19:43:59.171Z,16.33
2023-01-22T19:46:28.336Z,19.00
2023-01-22T19:48:57.055Z,16.53
2023-01-22T19:51:27.511Z,16.97
2023-01-22T19:53:55.958Z,16.33
2023-01-22T19:56:25.905Z,13.30
2023-01-22T19:58:59.693Z,16.27
2023-01-22T20:01:28.207Z,15.83
2023-01-22T20:03:57.076Z,13.13
2023-01-22T20:06:25.464Z,14.03
2023-01-22T20:08:56.181Z,11.80
2023-01-22T20:11:25.237Z,15.63
2023-01-22T20:13:55.201Z,14.50
2023-01-22T20:16:26.247Z,17.80
2023-01-22T20:18:55.933Z,14.23
2023-01-22T20:21:26.684Z,14.40
2023-01-22T20:23:55.244Z,13.75
2023-01-22T20:26:24.206Z,16.63
2023-01-22T20:28:52.757Z,14.03
2023-01-22T20:31:24.154Z,16.07
2023-01-22T20:33:54.760Z,16.92
2023-01-22T20:36:23.966Z,15.63
2023-01-22T20:38:54.218Z,14.17
2023-01-22T20:41:23.357Z,12.53
2023-01-22T20:43:51.933Z,15.53
2023-01-22T20:46:22.975Z,13.13
2023-01-22T20:48:52.005Z,11.93
2023-01-22T20:51:21.990Z,11.87
2023-01-22T20:53:51.819Z,12.30
2023-01-22T20:56:22.767Z,13.00
2023-01-22T20:58:57.213Z,11.57
2023-01-22T21:01:27.665Z,12.53
2023-01-22T21:03:57.323Z,10.23
2023-01-22T21:06:27.392Z,15.27
2023-01-22T21:08:57.045Z,12.30
2023-01-22T21:11:27.266Z,10.37
2023-01-22T21:13:58.025Z,13.07
2023-01-22T21:16:30.706Z,9.32
2023-01-22T21:19:01.989Z,13.83
2023-01-22T21:21:31.801Z,10.00
2023-01-22T21:24:00.527Z,14.07
2023-01-22T21:26:30.509Z,13.83
2023-01-22T21:29:01.010Z,12.27
2023-01-22T21:31:31.619Z,9.57
2023-01-22T21:34:03.511Z,12.27
2023-01-22T21:36:32.625Z,11.20
2023-01-22T21:39:01.170Z,9.93
2023-01-22T21:41:29.661Z,10.43
2023-01-22T21:44:15.479Z,11.20
2023-01-22T21:46:47.132Z,11.17
2023-01-22T21:51:49.340Z,6.28
2023-01-22T21:54:19.950Z,8.17
2023-01-22T21:56:48.434Z,9.53
2023-01-22T21:59:17.226Z,12.60
2023-01-22T22:01:47.138Z,13.20
2023-01-22T22:04:16.168Z,10.20
2023-01-22T22:06:44.408Z,9.67
2023-01-22T22:09:15.044Z,10.70
2023-01-22T22:11:43.277Z,9.30
2023-01-22T22:14:12.354Z,10.87
2023-01-22T22:16:40.799Z,9.17
2023-01-22T22:19:10.878Z,10.07
2023-01-22T22:21:39.291Z,11.70
2023-01-22T22:24:08.779Z,10.53
2023-01-22T22:26:37.711Z,9.47
2023-01-22T22:29:07.446Z,12.67
2023-01-22T22:31:36.504Z,10.33
2023-01-22T22:34:05.415Z,9.67
2023-01-22T22:36:35.347Z,10.30
2023-01-22T22:39:03.801Z,13.13
2023-01-22T22:41:34.421Z,10.20
2023-01-22T22:44:02.707Z,12.37
2023-01-22T22:46:32.737Z,12.20
2023-01-22T22:49:02.869Z,11.43
2023-01-22T22:51:32.892Z,10.93
2023-01-22T22:54:04.535Z,10.20
2023-01-22T22:56:33.298Z,9.63
2023-01-22T22:59:02.622Z,9.63
2023-01-22T23:01:33.226Z,12.33
2023-01-22T23:04:02.292Z,12.90
2023-01-22T23:06:32.486Z,11.07
2023-01-22T23:09:04.539Z,11.87
2023-01-22T23:11:36.341Z,10.97
2023-01-22T23:14:05.603Z,11.57
2023-01-22T23:16:35.942Z,9.40
2023-01-22T23:19:05.704Z,10.43
2023-01-22T23:21:36.425Z,11.57
2023-01-22T23:24:06.685Z,11.40
2023-01-22T23:26:35.290Z,11.60
2023-01-22T23:29:06.121Z,10.27
2023-01-22T23:31:36.464Z,10.73
2023-01-22T23:34:06.986Z,12.13
2023-01-22T23:36:35.949Z,11.83
2023-01-22T23:39:05.838Z,11.77
2023-01-22T23:41:34.045Z,11.47
2023-01-22T23:44:02.322Z,10.87
2023-01-22T23:46:32.132Z,10.77
2023-01-22T23:49:01.283Z,13.10
2023-01-22T23:51:29.922Z,13.93
2023-01-22T23:53:58.194Z,10.67
2023-01-22T23:56:31.711Z,11.90
2023-01-22T23:59:00.311Z,13.67
